Time;durP1;ratioP1;P1;durP2;ratioP2;P2;SDS_P1;SDS_P2;PMS_P1;PMS_P2;Temp;Humidity;BMP_temperature;BMP_pressure;BME280_temperature;BME280_humidity;BME280_pressure;Samples;Min_cycle;Max_cycle;Signal;HPM_P1;HPM_P2
2022/02/13 00:00:51;;;;;;;17.38;10.18;;;;;;;1.08;82.44;98775.59;4235513;27;20256;-82
2022/02/13 00:02:55;;;;;;;15.50;9.63;;;;;;;1.07;82.36;98784.22;4236881;27;20200;-82
2022/02/13 00:04:59;;;;;;;12.90;9.43;;;;;;;1.06;81.90;98774.81;4220256;28;20664;-82
2022/02/13 00:07:03;;;;;;;16.45;10.48;;;;;;;1.05;82.23;98773.09;4221840;28;20217;-82
2022/02/13 00:09:07;;;;;;;14.52;9.20;;;;;;;1.05;82.17;98773.09;4238502;27;20642;-82
2022/02/13 00:11:10;;;;;;;16.08;10.40;;;;;;;1.01;82.23;98772.31;4233909;27;20638;-82
2022/02/13 00:13:13;;;;;;;14.48;10.60;;;;;;;1.01;82.90;98769.75;4239551;27;20237;-82
2022/02/13 00:15:16;;;;;;;16.08;9.98;;;;;;;1.02;82.87;98773.16;4238646;28;20207;-82
2022/02/13 00:17:19;;;;;;;15.27;9.57;;;;;;;1.00;82.92;98762.91;4218370;28;20197;-82
2022/02/13 00:19:23;;;;;;;16.95;10.32;;;;;;;1.00;82.56;98762.91;4236388;28;20195;-82
2022/02/13 00:21:28;;;;;;;12.70;9.77;;;;;;;0.97;82.80;98767.28;4237154;28;20664;-82
2022/02/13 00:23:31;;;;;;;12.00;8.93;;;;;;;0.95;82.79;98764.75;4234335;28;20203;-82
2022/02/13 00:25:34;;;;;;;14.05;9.15;;;;;;;0.97;82.96;98762.16;4236858;27;20211;-82
2022/02/13 00:27:37;;;;;;;15.45;10.07;;;;;;;0.93;82.31;98766.50;4234715;28;20285;-82
2022/02/13 00:29:41;;;;;;;13.05;9.15;;;;;;;0.93;82.78;98763.06;4237987;27;20268;-82
2022/02/13 00:31:44;;;;;;;13.93;9.85;;;;;;;0.90;82.91;98762.31;4235914;27;20287;-82
2022/02/13 00:33:47;;;;;;;14.40;9.23;;;;;;;0.89;82.85;98758.03;4222165;28;20204;-82
2022/02/13 00:35:51;;;;;;;17.75;9.52;;;;;;;0.90;83.13;98759.72;4237046;28;20203;-82
2022/02/13 00:37:55;;;;;;;14.35;9.38;;;;;;;0.85;83.25;98762.38;4238802;28;20199;-83
2022/02/13 00:39:59;;;;;;;16.92;9.75;;;;;;;0.87;83.30;98758.06;4218382;28;20214;-82
2022/02/13 00:42:02;;;;;;;15.30;9.30;;;;;;;0.85;83.38;98757.25;4222613;28;20208;-83
2022/02/13 00:44:05;;;;;;;15.55;9.65;;;;;;;0.86;83.65;98753.81;4241110;28;20207;-82
2022/02/13 00:46:09;;;;;;;13.98;9.02;;;;;;;0.84;83.38;98750.41;4256424;27;20199;-82
2022/02/13 00:48:13;;;;;;;14.05;9.00;;;;;;;0.82;83.28;98754.75;4238015;27;20978;-82
2022/02/13 00:50:16;;;;;;;22.85;11.50;;;;;;;0.79;82.72;98752.25;4254726;27;20782;-82
2022/02/13 00:52:19;;;;;;;13.45;9.15;;;;;;;0.79;83.22;98751.41;4221649;28;20212;-82
2022/02/13 00:54:23;;;;;;;13.88;9.23;;;;;;;0.80;82.83;98753.06;4236629;28;20615;-82
2022/02/13 00:56:26;;;;;;;14.02;7.95;;;;;;;0.78;82.91;98747.97;4217876;28;20250;-82
2022/02/13 00:58:29;;;;;;;12.70;8.32;;;;;;;0.79;82.63;98747.13;4237063;27;20211;-82
2022/02/13 01:00:33;;;;;;;13.05;8.27;;;;;;;0.75;82.92;98744.63;4219832;28;20297;-82
2022/02/13 01:02:36;;;;;;;14.15;9.77;;;;;;;0.75;82.86;98742.94;4237307;28;20707;-82
2022/02/13 01:04:39;;;;;;;13.93;9.00;;;;;;;0.77;82.78;98740.34;4223357;28;20228;-82
2022/02/13 01:06:42;;;;;;;12.68;8.80;;;;;;;0.74;83.53;98748.09;4238342;27;21017;-82
2022/02/13 01:08:45;;;;;;;15.05;9.40;;;;;;;0.77;83.36;98738.59;4220816;28;20200;-82
2022/02/13 01:10:49;;;;;;;16.73;9.45;;;;;;;0.74;83.30;98737.84;4236776;28;20207;-83
2022/02/13 01:12:52;;;;;;;20.60;9.52;;;;;;;0.71;83.14;98738.72;4235276;28;20214;-83
2022/02/13 01:14:55;;;;;;;14.93;9.43;;;;;;;0.70;82.94;98731.91;4219554;28;20196;-82
2022/02/13 01:16:58;;;;;;;13.35;9.35;;;;;;;0.68;83.03;98732.81;4221338;28;20230;-82
2022/02/13 01:19:02;;;;;;;14.35;9.65;;;;;;;0.66;82.99;98727.72;4249160;27;20214;-83
2022/02/13 01:21:07;;;;;;;18.75;9.57;;;;;;;0.64;83.15;98734.56;4238238;27;20200;-82
2022/02/13 01:23:10;;;;;;;14.43;9.88;;;;;;;0.64;83.21;98731.19;4240850;27;20254;-82
2022/02/13 01:25:13;;;;;;;18.80;9.85;;;;;;;0.61;83.49;98734.63;4240897;27;20603;-83
2022/02/13 01:27:17;;;;;;;19.67;10.25;;;;;;;0.58;82.61;98732.13;4238200;27;20221;-82
2022/02/13 01:29:21;;;;;;;17.15;10.48;;;;;;;0.58;83.04;98732.13;4222680;28;20208;-82
2022/02/13 01:31:25;;;;;;;16.05;9.02;;;;;;;0.56;83.14;98726.19;4223065;28;20247;-82
2022/02/13 01:33:28;;;;;;;14.50;9.40;;;;;;;0.57;83.25;98730.47;4238930;27;20303;-82
2022/02/13 01:35:31;;;;;;;13.02;9.07;;;;;;;0.56;83.05;98728.75;4236127;27;20308;-82
2022/02/13 01:37:35;;;;;;;14.27;9.40;;;;;;;0.54;82.90;98729.66;4238029;27;20195;-82
2022/02/13 01:39:38;;;;;;;15.82;9.25;;;;;;;0.52;83.10;98721.97;4243030;27;20613;-82
2022/02/13 01:41:41;;;;;;;16.52;9.02;;;;;;;0.50;83.03;98721.19;4224540;28;20203;-82
2022/02/13 01:43:46;;;;;;;15.15;9.55;;;;;;;0.50;83.04;98717.78;4241019;27;20211;-82
2022/02/13 01:45:49;;;;;;;13.57;9.20;;;;;;;0.48;83.03;98719.50;4240933;27;20621;-82
2022/02/13 01:47:52;;;;;;;12.82;8.57;;;;;;;0.48;82.82;98720.38;4239686;27;20866;-82
2022/02/13 01:49:55;;;;;;;12.95;8.20;;;;;;;0.47;82.82;98717.84;4226117;28;20695;-83
2022/02/13 01:52:00;;;;;;;15.90;8.45;;;;;;;0.45;83.12;98713.59;4238670;27;20276;-82
2022/02/13 01:54:04;;;;;;;12.45;8.25;;;;;;;0.45;83.63;98711.03;4216989;27;20215;-82
2022/02/13 01:56:07;;;;;;;17.98;8.60;;;;;;;0.42;83.58;98711.94;4221006;28;20990;-82
2022/02/13 01:58:10;;;;;;;12.50;7.80;;;;;;;0.41;82.95;98715.38;4236533;27;20284;-82
2022/02/13 02:00:15;;;;;;;12.30;8.77;;;;;;;0.39;83.16;98713.72;4220648;28;20295;-82
2022/02/13 02:02:18;;;;;;;12.38;8.68;;;;;;;0.36;83.23;98706.06;4237511;27;20215;-82
2022/02/13 02:04:21;;;;;;;13.85;8.35;;;;;;;0.33;82.86;98709.56;4237605;27;20208;-83
2022/02/13 02:06:25;;;;;;;13.50;8.00;;;;;;;0.33;83.46;98709.56;4240183;27;20212;-83
2022/02/13 02:08:29;;;;;;;13.48;8.23;;;;;;;0.34;83.00;98712.97;4224493;27;20231;-82
2022/02/13 02:10:33;;;;;;;13.23;8.10;;;;;;;0.32;83.27;98712.16;4242099;27;20207;-82
2022/02/13 02:12:36;;;;;;;12.10;8.20;;;;;;;0.30;83.02;98703.63;4243251;27;20206;-82
2022/02/13 02:14:39;;;;;;;15.13;8.13;;;;;;;0.29;83.30;98705.34;4241995;27;20213;-82
2022/02/13 02:16:44;;;;;;;12.40;7.85;;;;;;;0.31;83.24;98700.19;4225409;28;20207;-82
2022/02/13 02:18:47;;;;;;;11.55;7.80;;;;;;;0.28;84.01;98701.09;4242088;27;20218;-82
2022/02/13 02:20:50;;;;;;;11.80;7.63;;;;;;;0.30;83.55;98703.63;4241583;27;20210;-82
2022/02/13 02:22:56;;;;;;;8.80;6.78;;;;;;;0.31;83.43;98697.63;4224108;28;20198;-82
2022/02/13 02:24:59;;;;;;;12.93;7.88;;;;;;;0.31;83.77;98692.50;4241594;27;20195;-82
2022/02/13 02:27:03;;;;;;;13.73;7.50;;;;;;;0.29;83.66;98696.81;4237436;27;20619;-83
2022/02/13 02:29:06;;;;;;;13.15;7.90;;;;;;;0.31;83.50;98685.66;4219810;28;20254;-82
2022/02/13 02:31:09;;;;;;;12.30;7.70;;;;;;;0.32;83.76;98695.03;4235426;27;20206;-83
2022/02/13 02:33:13;;;;;;;13.65;8.43;;;;;;;0.29;83.23;98677.16;4234891;27;20235;-82
2022/02/13 02:35:16;;;;;;;10.73;7.43;;;;;;;0.29;83.79;98681.44;4236650;27;20191;-82
2022/02/13 02:37:19;;;;;;;12.02;6.82;;;;;;;0.31;83.56;98679.69;4235405;27;20214;-82
2022/02/13 02:39:25;;;;;;;10.05;7.38;;;;;;;0.31;83.59;98677.13;4240308;27;20215;-82
2022/02/13 02:41:29;;;;;;;13.48;8.30;;;;;;;0.34;83.12;98677.06;4241104;27;20597;-83
2022/02/13 02:43:32;;;;;;;12.35;8.32;;;;;;;0.34;83.62;98666.81;4239505;27;20206;-82
2022/02/13 02:45:35;;;;;;;12.20;7.60;;;;;;;0.35;83.52;98671.06;4235852;27;20222;-82
2022/02/13 02:47:38;;;;;;;13.27;7.80;;;;;;;0.34;83.08;98669.38;4240063;27;20199;-82
2022/02/13 02:49:41;;;;;;;11.65;7.35;;;;;;;0.28;83.25;98660.06;4237653;27;20200;-82
2022/02/13 02:51:45;;;;;;;13.95;8.57;;;;;;;0.25;83.69;98659.28;4220136;28;20220;-82
2022/02/13 02:53:48;;;;;;;13.25;8.90;;;;;;;0.21;83.86;98663.63;4218024;28;20196;-82
2022/02/13 02:55:52;;;;;;;12.20;7.60;;;;;;;0.21;83.56;98668.75;4238757;27;20199;-82
2022/02/13 02:57:56;;;;;;;13.45;8.50;;;;;;;0.18;83.29;98667.97;4236700;27;20551;-82
2022/02/13 02:59:59;;;;;;;10.38;7.82;;;;;;;0.17;83.63;98668.84;4237099;27;20207;-82
2022/02/13 03:02:03;;;;;;;11.02;7.55;;;;;;;0.16;83.56;98660.28;4219394;28;20230;-82
2022/02/13 03:04:06;;;;;;;11.00;8.50;;;;;;;0.16;83.50;98659.47;4237950;27;20613;-82
2022/02/13 03:06:09;;;;;;;9.80;6.60;;;;;;;0.14;83.41;98656.94;4238390;27;20624;-82
2022/02/13 03:08:12;;;;;;;10.60;7.40;;;;;;;0.15;83.11;98660.31;4236652;27;20296;-82
2022/02/13 03:10:15;;;;;;;10.57;7.80;;;;;;;0.12;83.48;98652.69;4219552;28;20296;-82
2022/02/13 03:12:19;;;;;;;12.55;7.32;;;;;;;0.11;83.36;98649.28;4226283;27;20196;-82
2022/02/13 03:14:23;;;;;;;12.05;7.22;;;;;;;0.09;83.54;98645.91;4235130;27;20232;-83
2022/02/13 03:16:26;;;;;;;9.90;7.03;;;;;;;0.08;83.69;98640.81;4236752;27;20199;-82
2022/02/13 03:18:30;;;;;;;12.65;7.38;;;;;;;0.12;83.64;98642.44;4221528;28;20322;-83
2022/02/13 03:20:33;;;;;;;9.52;6.75;;;;;;;0.13;83.35;98644.13;4252395;27;20290;-82
2022/02/13 03:22:37;;;;;;;9.88;6.80;;;;;;;0.12;83.06;98645.88;4217622;28;20210;-82
2022/02/13 03:24:40;;;;;;;10.00;6.95;;;;;;;0.11;83.14;98645.91;4236821;27;20214;-82
2022/02/13 03:26:43;;;;;;;9.32;5.97;;;;;;;0.12;83.62;98650.13;4238272;27;20205;-82
2022/02/13 03:28:47;;;;;;;11.65;7.78;;;;;;;0.10;83.38;98651.88;4236497;27;20227;-82
2022/02/13 03:30:51;;;;;;;9.88;7.20;;;;;;;0.14;83.47;98656.09;4220689;28;20226;-81
2022/02/13 03:32:54;;;;;;;9.32;7.10;;;;;;;0.12;83.46;98655.25;4222684;28;20295;-82
2022/02/13 03:34:57;;;;;;;12.50;7.90;;;;;;;0.13;83.18;98646.69;4235539;27;20196;-82
2022/02/13 03:37:00;;;;;;;11.73;7.32;;;;;;;0.10;83.04;98646.75;4234969;27;20242;-82
2022/02/13 03:39:04;;;;;;;11.57;8.18;;;;;;;0.06;82.73;98643.41;4221729;28;20633;-82
2022/02/13 03:41:07;;;;;;;13.73;7.22;;;;;;;0.04;83.08;98641.75;4236360;27;20214;-82
2022/02/13 03:43:10;;;;;;;9.85;6.72;;;;;;;0.01;83.03;98647.75;4241570;27;20220;-82
2022/02/13 03:45:15;;;;;;;10.77;7.30;;;;;;;0.03;83.07;98640.03;4238674;27;20205;-82
2022/02/13 03:47:18;;;;;;;11.52;8.23;;;;;;;0.04;82.90;98639.19;4241379;27;20621;-83
2022/02/13 03:49:21;;;;;;;10.35;7.53;;;;;;;0.00;83.13;98643.53;4237568;27;20277;-83
2022/02/13 03:51:24;;;;;;;10.02;6.30;;;;;;;-0.04;83.24;98643.59;4240828;27;20210;-82
2022/02/13 03:53:28;;;;;;;9.60;6.93;;;;;;;-0.02;83.06;98646.16;4220280;28;20210;-82
2022/02/13 03:55:32;;;;;;;14.25;7.78;;;;;;;-0.03;83.19;98647.88;4219802;28;20197;-82
2022/02/13 03:57:35;;;;;;;9.50;7.55;;;;;;;-0.08;83.08;98641.13;4238285;27;20206;-82
2022/02/13 03:59:38;;;;;;;9.45;6.93;;;;;;;-0.09;83.40;98642.84;4219522;28;20310;-82
2022/02/13 04:01:44;;;;;;;13.27;7.25;;;;;;;-0.07;83.49;98641.09;4236173;27;20204;-82
2022/02/13 04:03:48;;;;;;;9.82;7.03;;;;;;;-0.09;83.54;98636.88;4233962;27;20214;-82
2022/02/13 04:05:54;;;;;;;10.20;7.50;;;;;;;-0.09;83.88;98642.00;4236292;27;20219;-82
2022/02/13 04:07:57;;;;;;;12.52;7.90;;;;;;;-0.10;83.62;98643.72;4222720;28;20258;-82
2022/02/13 04:10:00;;;;;;;9.40;6.72;;;;;;;-0.18;83.60;98635.34;4222168;28;20218;-83
2022/02/13 04:12:04;;;;;;;9.07;6.70;;;;;;;-0.19;83.82;98636.19;4252580;27;20206;-82
2022/02/13 04:14:07;;;;;;;11.43;7.13;;;;;;;-0.17;84.17;98641.28;4236808;27;20233;-83
2022/02/13 04:16:10;;;;;;;10.68;6.75;;;;;;;-0.16;83.74;98635.31;4238139;27;20202;-82
2022/02/13 04:18:18;;;;;;;10.18;6.40;;;;;;;-0.16;83.87;98636.13;4235616;28;20199;-82
2022/02/13 04:20:22;;;;;;;10.48;7.28;;;;;;;-0.17;83.50;98636.16;4234875;28;20254;-83
2022/02/13 04:22:25;;;;;;;8.90;6.72;;;;;;;-0.16;83.64;98638.69;4233681;28;20207;-82
2022/02/13 04:24:28;;;;;;;9.93;6.80;;;;;;;-0.16;83.94;98637.88;4250011;27;20203;-82
2022/02/13 04:26:31;;;;;;;12.60;6.75;;;;;;;-0.19;83.54;98631.06;4216363;28;20223;-82
2022/02/13 04:28:34;;;;;;;11.18;6.85;;;;;;;-0.14;83.84;98624.13;4231037;27;20624;-82
2022/02/13 04:30:39;;;;;;;10.48;6.30;;;;;;;-0.13;83.76;98630.97;4235061;28;20244;-82
2022/02/13 04:32:42;;;;;;;12.93;6.65;;;;;;;-0.15;83.38;98627.59;4237006;27;20211;-82
2022/02/13 04:34:47;;;;;;;10.18;6.75;;;;;;;-0.13;83.73;98630.97;4216688;28;20219;-82
2022/02/13 04:36:50;;;;;;;13.40;7.72;;;;;;;-0.14;83.24;98636.94;4237038;28;20583;-82
2022/02/13 04:38:53;;;;;;;8.85;6.50;;;;;;;-0.15;83.21;98634.41;4236904;28;20202;-82
2022/02/13 04:40:56;;;;;;;11.27;7.25;;;;;;;-0.17;83.29;98631.88;4235303;28;20575;-82
2022/02/13 04:42:59;;;;;;;8.50;6.43;;;;;;;-0.19;83.19;98625.13;4234749;28;20655;-82
2022/02/13 04:45:04;;;;;;;12.88;6.75;;;;;;;-0.17;83.33;98628.47;4220864;28;20211;-82
2022/02/13 04:47:07;;;;;;;11.27;6.57;;;;;;;-0.17;83.62;98631.88;4235735;28;20248;-82
2022/02/13 04:49:10;;;;;;;11.55;6.72;;;;;;;-0.17;83.29;98625.91;4237640;28;20775;-82
2022/02/13 04:51:14;;;;;;;14.98;7.22;;;;;;;-0.21;83.34;98622.56;4237979;28;20248;-82
2022/02/13 04:53:17;;;;;;;10.18;7.05;;;;;;;-0.22;83.28;98626.00;4220036;28;20219;-82
2022/02/13 04:55:21;;;;;;;10.60;6.60;;;;;;;-0.23;83.52;98624.28;4222601;28;20200;-82
2022/02/13 04:57:25;;;;;;;10.32;6.93;;;;;;;-0.26;83.69;98619.22;4241564;27;20204;-82
2022/02/13 04:59:33;;;;;;;9.35;6.65;;;;;;;-0.28;83.58;98613.31;4222173;28;20211;-82
2022/02/13 05:01:36;;;;;;;11.00;6.72;;;;;;;-0.28;84.02;98615.84;4240193;27;20207;-83
2022/02/13 05:03:39;;;;;;;9.15;6.70;;;;;;;-0.26;84.03;98615.84;4241457;27;20203;-83
2022/02/13 05:05:42;;;;;;;8.93;7.13;;;;;;;-0.27;83.78;98617.56;4241808;27;20240;-83
2022/02/13 05:07:46;;;;;;;10.35;7.13;;;;;;;-0.26;83.17;98606.41;4222137;28;20227;-82
2022/02/13 05:09:50;;;;;;;10.23;7.00;;;;;;;-0.26;83.04;98603.84;4239836;27;20226;-82
2022/02/13 05:11:55;;;;;;;11.45;6.63;;;;;;;-0.26;83.80;98603.84;4237620;27;20610;-82
2022/02/13 05:14:01;;;;;;;9.75;6.60;;;;;;;-0.25;83.50;98592.75;4236299;27;20230;-82
2022/02/13 05:16:05;;;;;;;9.75;6.60;;;;;;;-0.24;83.26;98589.31;4238972;27;20239;-82
2022/02/13 05:18:09;;;;;;;13.05;7.50;;;;;;;-0.22;83.11;98597.00;4240394;27;20203;-82
2022/02/13 05:20:12;;;;;;;9.95;6.40;;;;;;;-0.23;83.41;98593.56;4255696;27;20202;-82
2022/02/13 05:22:16;;;;;;;10.50;6.40;;;;;;;-0.19;83.49;98595.19;4236612;27;20213;-82
2022/02/13 05:24:20;;;;;;;8.23;6.53;;;;;;;-0.18;83.04;98596.91;4240052;27;20592;-82
2022/02/13 05:26:24;;;;;;;9.85;6.65;;;;;;;-0.21;83.22;98594.41;4237899;27;20199;-82
2022/02/13 05:28:27;;;;;;;12.27;6.70;;;;;;;-0.22;83.51;98597.81;4241264;27;20214;-80
2022/02/13 05:30:30;;;;;;;8.48;6.85;;;;;;;-0.23;83.41;98601.25;4240394;27;20573;-80
2022/02/13 05:32:33;;;;;;;13.77;8.80;;;;;;;-0.21;83.17;98591.84;4241595;27;20204;-81
2022/02/13 05:34:36;;;;;;;9.80;6.68;;;;;;;-0.23;83.23;98590.16;4240340;27;20544;-80
2022/02/13 05:36:39;;;;;;;11.98;7.20;;;;;;;-0.22;83.01;98584.19;4238068;27;20211;-81
2022/02/13 05:38:42;;;;;;;9.55;6.38;;;;;;;-0.23;82.87;98588.44;4238471;27;20206;-80
2022/02/13 05:40:47;;;;;;;11.85;7.80;;;;;;;-0.20;83.29;98588.38;4233138;27;20206;-80
2022/02/13 05:42:50;;;;;;;10.57;7.15;;;;;;;-0.22;82.86;98582.44;4242860;27;20206;-81
2022/02/13 05:44:55;;;;;;;10.23;7.50;;;;;;;-0.23;82.94;98585.03;4240127;27;20204;-81
2022/02/13 05:46:58;;;;;;;13.88;8.20;;;;;;;-0.22;83.38;98581.63;4241548;27;20211;-80
2022/02/13 05:49:01;;;;;;;9.68;7.32;;;;;;;-0.22;83.28;98587.56;4239057;27;20210;-81
2022/02/13 05:51:04;;;;;;;10.80;7.07;;;;;;;-0.23;83.16;98583.31;4217572;27;20233;-81
2022/02/13 05:53:08;;;;;;;9.07;6.65;;;;;;;-0.25;82.95;98585.06;4251990;27;20202;-80
2022/02/13 05:55:11;;;;;;;13.25;7.75;;;;;;;-0.24;83.16;98578.22;4248171;27;20263;-81
2022/02/13 05:57:15;;;;;;;7.47;5.97;;;;;;;-0.22;82.79;98579.88;4223068;28;20206;-81
2022/02/13 05:59:18;;;;;;;10.13;6.55;;;;;;;-0.24;82.90;98578.22;4237715;27;20295;-81
2022/02/13 06:01:22;;;;;;;9.75;6.72;;;;;;;-0.24;83.10;98581.66;4236422;27;20210;-80
2022/02/13 06:03:25;;;;;;;12.30;6.88;;;;;;;-0.25;83.23;98576.53;4240329;27;20251;-81
2022/02/13 06:05:28;;;;;;;9.52;6.40;;;;;;;-0.21;83.25;98578.16;4237751;27;20692;-80
2022/02/13 06:07:37;;;;;;;9.27;6.65;;;;;;;-0.23;83.03;98578.19;4241402;27;20613;-81
2022/02/13 06:09:40;;;;;;;9.70;6.47;;;;;;;-0.25;83.50;98569.69;4240424;27;20201;-80
2022/02/13 06:11:43;;;;;;;11.45;7.55;;;;;;;-0.22;83.42;98571.38;4223315;28;20229;-82
2022/02/13 06:13:48;;;;;;;11.55;6.53;;;;;;;-0.22;83.41;98576.50;4220704;28;20228;-80
2022/02/13 06:15:51;;;;;;;9.80;7.10;;;;;;;-0.24;83.94;98571.41;4233895;27;20234;-80
2022/02/13 06:17:54;;;;;;;13.30;6.72;;;;;;;-0.23;83.44;98561.97;4236558;27;20206;-81
2022/02/13 06:19:57;;;;;;;9.40;6.75;;;;;;;-0.17;83.54;98564.44;4236133;27;20243;-81
2022/02/13 06:22:05;;;;;;;11.10;6.60;;;;;;;-0.16;83.63;98572.09;4225454;28;20208;-80
2022/02/13 06:24:08;;;;;;;8.55;6.75;;;;;;;-0.14;83.12;98565.22;4256680;27;20199;-81
2022/02/13 06:26:13;;;;;;;9.70;7.07;;;;;;;-0.14;83.49;98567.78;4223891;27;20656;-80
2022/02/13 06:28:16;;;;;;;8.15;6.03;;;;;;;-0.14;83.71;98565.22;4223857;28;20253;-81
2022/02/13 06:30:20;;;;;;;9.10;6.65;;;;;;;-0.15;83.87;98566.09;4235810;27;20225;-80
2022/02/13 06:32:23;;;;;;;10.02;7.15;;;;;;;-0.15;83.75;98558.41;4218559;28;20661;-81
2022/02/13 06:34:26;;;;;;;10.80;7.28;;;;;;;-0.16;83.49;98559.28;4236783;27;20688;-80
2022/02/13 06:36:31;;;;;;;8.75;7.40;;;;;;;-0.12;83.65;98560.91;4222297;28;20218;-80
2022/02/13 06:38:34;;;;;;;9.10;7.40;;;;;;;-0.12;83.40;98563.47;4236916;27;20214;-80
2022/02/13 06:40:37;;;;;;;9.85;7.07;;;;;;;-0.12;83.13;98550.66;4225128;27;20619;-81
2022/02/13 06:42:40;;;;;;;10.82;7.43;;;;;;;-0.11;83.43;98552.34;4229817;27;20207;-81
2022/02/13 06:44:43;;;;;;;12.20;8.25;;;;;;;-0.09;83.59;98550.63;4222990;28;20708;-80
2022/02/13 06:46:48;;;;;;;10.85;8.32;;;;;;;-0.07;83.28;98548.84;4240199;27;20210;-81
2022/02/13 06:48:51;;;;;;;11.73;7.32;;;;;;;-0.07;83.04;98535.22;4236314;27;20218;-81
2022/02/13 06:50:54;;;;;;;10.10;7.78;;;;;;;-0.08;83.15;98546.31;4233158;27;20234;-83
2022/02/13 06:52:57;;;;;;;11.23;8.13;;;;;;;-0.04;83.25;98546.22;4237700;27;20191;-80
2022/02/13 06:55:00;;;;;;;11.75;8.98;;;;;;;-0.01;83.44;98544.44;4239753;27;20212;-81
2022/02/13 06:57:03;;;;;;;9.80;7.63;;;;;;;0.00;83.35;98553.00;4236730;27;20203;-80
2022/02/13 06:59:07;;;;;;;9.30;7.25;;;;;;;-0.01;83.01;98554.69;4237552;27;20266;-81
2022/02/13 07:01:10;;;;;;;9.50;6.78;;;;;;;0.05;83.06;98546.06;4221573;28;20204;-81
2022/02/13 07:03:14;;;;;;;10.05;7.82;;;;;;;0.16;82.98;98542.38;4238512;27;20207;-81
2022/02/13 07:05:19;;;;;;;10.55;6.95;;;;;;;0.29;83.05;98550.69;4221699;28;20337;-82
2022/02/13 07:07:22;;;;;;;10.88;6.90;;;;;;;0.43;83.04;98544.38;4238082;27;20206;-81
2022/02/13 07:09:28;;;;;;;10.35;7.20;;;;;;;0.56;82.84;98549.19;4238004;27;20211;-81
2022/02/13 07:11:31;;;;;;;16.23;9.07;;;;;;;0.71;82.43;98540.34;4219696;28;20782;-81
2022/02/13 07:13:34;;;;;;;15.60;10.85;;;;;;;0.85;82.71;98545.97;4237688;27;20579;-81
2022/02/13 07:15:37;;;;;;;14.63;9.98;;;;;;;1.01;81.97;98550.72;4238679;27;20255;-81
2022/02/13 07:17:42;;;;;;;14.82;9.27;;;;;;;1.13;81.93;98553.84;4234108;27;20204;-81
2022/02/13 07:19:47;;;;;;;10.85;8.48;;;;;;;1.27;81.55;98546.63;4215203;28;20196;-81
2022/02/13 07:21:50;;;;;;;10.60;7.80;;;;;;;1.40;81.60;98546.28;4237120;27;20199;-81
2022/02/13 07:23:53;;;;;;;9.60;7.25;;;;;;;1.54;80.88;98545.94;4237149;27;20290;-81
2022/02/13 07:25:57;;;;;;;10.32;7.30;;;;;;;1.64;79.96;98545.66;4240440;27;20223;-82
2022/02/13 07:28:58;;;;;;;18.55;11.95;;;;;;;1.77;80.13;98544.44;4224604;28;20299;-81
2022/02/13 07:30:24;;;;;;;10.80;8.20;;;;;;;1.89;79.94;98539.84;4235271;27;20204;-81
2022/02/13 07:32:27;;;;;;;12.35;8.43;;;;;;;2.02;79.82;98538.59;4239641;27;20235;-81
2022/02/13 07:34:30;;;;;;;14.20;10.93;;;;;;;2.15;78.78;98547.66;4239200;27;20201;-81
2022/02/13 07:36:36;;;;;;;13.43;11.27;;;;;;;2.24;78.36;98536.25;4237699;27;20673;-81
2022/02/13 07:38:39;;;;;;;11.18;9.48;;;;;;;2.31;78.14;98545.50;4238958;27;20227;-82
2022/02/13 07:40:42;;;;;;;9.98;8.90;;;;;;;2.42;78.09;98542.56;4239071;27;20214;-83
2022/02/13 07:42:46;;;;;;;11.75;8.30;;;;;;;2.55;77.90;98538.72;4241548;27;20203;-83
2022/02/13 07:44:50;;;;;;;10.82;7.50;;;;;;;2.65;78.16;98541.88;4239196;27;20208;-83
2022/02/13 07:46:54;;;;;;;9.85;7.47;;;;;;;2.72;77.64;98539.09;4252439;27;20212;-83
2022/02/13 07:48:57;;;;;;;9.27;6.43;;;;;;;2.79;77.85;98533.66;4238265;27;20288;-83
2022/02/13 07:51:00;;;;;;;10.57;6.90;;;;;;;2.90;77.33;98538.50;4222189;28;20211;-83
2022/02/13 07:53:04;;;;;;;10.45;7.32;;;;;;;2.98;76.62;98531.41;4220733;28;20212;-83
2022/02/13 07:55:08;;;;;;;9.45;6.72;;;;;;;3.09;77.01;98532.72;4220909;28;20278;-83
2022/02/13 07:57:11;;;;;;;10.02;6.93;;;;;;;3.22;77.29;98533.16;4238776;27;20204;-83
2022/02/13 07:59:15;;;;;;;8.88;6.63;;;;;;;3.28;77.29;98538.97;4217276;28;20224;-83
2022/02/13 08:01:19;;;;;;;9.30;6.82;;;;;;;3.38;77.61;98533.47;4236968;27;20722;-81
2022/02/13 08:03:22;;;;;;;10.73;7.97;;;;;;;3.49;76.33;98533.94;4237651;27;20208;-80
2022/02/13 08:05:25;;;;;;;9.45;6.72;;;;;;;3.51;77.07;98527.00;4240444;27;20203;-81
2022/02/13 08:07:28;;;;;;;9.52;7.07;;;;;;;3.56;76.13;98522.50;4239270;27;20200;-80
2022/02/13 08:09:34;;;;;;;10.23;7.90;;;;;;;3.65;75.58;98518.78;4235329;27;20203;-83
2022/02/13 08:11:38;;;;;;;193.27;74.80;;;;;;;3.78;76.35;98515.75;4239739;27;20227;-83
2022/02/13 08:13:41;;;;;;;12.35;8.40;;;;;;;3.92;76.41;98513.50;4235956;27;20608;-82
2022/02/13 08:15:44;;;;;;;226.20;75.80;;;;;;;4.04;76.79;98508.75;4233895;27;20208;-79
2022/02/13 08:17:47;;;;;;;67.40;31.23;;;;;;;4.04;74.52;98510.50;4236918;28;20214;-80
2022/02/13 08:19:51;;;;;;;26.92;17.80;;;;;;;4.07;75.11;98513.81;4240029;28;20204;-80
2022/02/13 08:21:54;;;;;;;25.45;18.90;;;;;;;4.15;75.25;98508.38;4236131;28;20644;-80
2022/02/13 08:24:00;;;;;;;19.83;12.98;;;;;;;4.20;75.87;98510.72;4238925;28;20306;-81
2022/02/13 08:26:05;;;;;;;13.45;9.90;;;;;;;4.28;76.13;98508.72;4221189;28;20204;-80
2022/02/13 08:28:08;;;;;;;15.82;10.45;;;;;;;4.37;75.02;98508.34;4239711;27;20203;-80
2022/02/13 08:30:12;;;;;;;11.82;9.10;;;;;;;4.43;75.05;98508.13;4258427;27;20203;-80
2022/02/13 08:32:15;;;;;;;10.50;7.40;;;;;;;4.44;75.36;98509.81;4240886;27;20228;-80
2022/02/13 08:34:18;;;;;;;11.43;8.30;;;;;;;4.60;76.67;98510.06;4238061;27;20203;-80
2022/02/13 08:36:23;;;;;;;11.30;8.35;;;;;;;4.66;77.08;98512.41;4241168;27;20696;-80
2022/02/13 08:38:26;;;;;;;10.77;6.55;;;;;;;4.65;75.67;98503.00;4226151;28;20212;-80
2022/02/13 08:40:30;;;;;;;10.73;6.95;;;;;;;4.49;75.99;98507.91;4226603;28;20216;-81
2022/02/13 08:42:34;;;;;;;9.35;6.55;;;;;;;4.39;76.83;98505.72;4220822;28;20280;-82
2022/02/13 08:44:38;;;;;;;11.82;7.95;;;;;;;4.27;76.79;98501.03;4256425;27;20800;-82
2022/02/13 08:46:41;;;;;;;13.20;8.20;;;;;;;4.26;77.48;98504.50;4225799;27;20214;-81
2022/02/13 08:48:44;;;;;;;8.18;7.25;;;;;;;4.20;76.41;98501.31;4224141;28;20238;-82
2022/02/13 08:50:47;;;;;;;11.23;8.10;;;;;;;4.17;76.92;98504.00;4236646;27;20215;-82
2022/02/13 08:52:52;;;;;;;10.45;7.80;;;;;;;4.29;79.67;98509.56;4235199;27;20271;-82
2022/02/13 08:54:55;;;;;;;16.02;9.55;;;;;;;4.48;77.90;98501.06;4225290;28;20216;-82
2022/02/13 08:56:59;;;;;;;15.63;9.10;;;;;;;4.56;79.12;98504.19;4219506;28;20595;-82
2022/02/13 08:59:03;;;;;;;11.00;8.15;;;;;;;4.58;77.91;98502.38;4241581;27;20301;-82
2022/02/13 09:01:06;;;;;;;10.75;8.25;;;;;;;4.68;78.37;98498.56;4254015;27;20204;-82
2022/02/13 09:03:09;;;;;;;10.75;7.85;;;;;;;4.86;77.82;98503.00;4234960;27;20692;-82
2022/02/13 09:05:13;;;;;;;11.45;7.88;;;;;;;4.91;77.88;98485.56;4223427;28;20205;-82
2022/02/13 09:07:16;;;;;;;11.75;8.38;;;;;;;5.18;78.54;98491.31;4244370;27;20200;-82
2022/02/13 09:09:19;;;;;;;11.60;9.05;;;;;;;5.40;78.08;98488.69;4231863;27;20618;-82
2022/02/13 09:11:22;;;;;;;10.25;7.70;;;;;;;5.53;76.80;98487.25;4228254;27;20604;-82
2022/02/13 09:13:25;;;;;;;10.98;7.40;;;;;;;5.65;76.47;98487.56;4235953;27;20235;-82
2022/02/13 09:15:30;;;;;;;9.75;7.32;;;;;;;5.78;76.30;98479.25;4234928;27;20219;-82
2022/02/13 09:17:34;;;;;;;27.75;13.95;;;;;;;5.96;77.21;98477.63;4239739;27;20205;-82
2022/02/13 09:19:37;;;;;;;65.55;27.58;;;;;;;6.12;76.97;98469.94;4234683;27;20245;-82
2022/02/13 09:21:40;;;;;;;258.38;84.03;;;;;;;6.32;77.34;98469.88;4235901;27;20211;-82
2022/02/13 09:23:43;;;;;;;111.85;40.50;;;;;;;6.53;77.08;98461.13;4221728;27;20226;-82
2022/02/13 09:25:46;;;;;;;80.95;33.65;;;;;;;6.65;75.44;98466.56;4237479;27;20292;-82
2022/02/13 09:27:50;;;;;;;40.60;18.63;;;;;;;6.76;75.71;98466.06;4237526;27;20206;-82
2022/02/13 09:29:54;;;;;;;742.92;256.52;;;;;;;6.93;76.28;98466.09;4220040;28;20202;-82
2022/02/13 09:31:59;;;;;;;128.43;50.42;;;;;;;7.08;75.32;98456.69;4240064;27;20287;-82
2022/02/13 09:34:02;;;;;;;193.90;78.38;;;;;;;7.22;75.95;98450.81;4222963;28;20251;-82
2022/02/13 09:36:05;;;;;;;125.18;55.35;;;;;;;7.35;75.36;98447.56;4236378;27;20223;-82
2022/02/13 09:38:11;;;;;;;60.85;29.80;;;;;;;7.44;74.02;98449.66;4236289;27;20210;-82
2022/02/13 09:40:14;;;;;;;15.00;10.25;;;;;;;7.44;75.24;98449.66;4239106;27;20230;-81